CheckWX is a tool to help pilots better visualize weather data.  It is not intended as a substitute for an official pre-flight weather briefing.

09:07:22 UTC

KTVC TAF
Cherry Capital Airport
Traverse City, Michigan, USA
KTVC 230846Z 2309/2406 34008KT P6SM VCSH SCT015 OVC035 FM231500 28010G19KT P6SM VCSH OVC015 FM231700 29012G20KT P6SM VCSH OVC022 FM232000 30011KT P6SM OVC035 FM232300 31007KT P6SM BKN040 FM240100 VRB03KT P6SM SCT040

Sep-23@
09:00 UTC

Sep-23 @ 09:00 UTC

Sep-23@
15:00 UTC

Sep-23 @ 15:00 UTC

KTVC 230846Z 2309/2406 34008KT P6SM VCSH SCT015 OVC035
Wind
  • 340° at 8 KTS
Cloud Levels
  • Scattered at 1,500' AGL
  • Overcast at 3,500' AGL

Sep-23@
15:00 UTC

Sep-23 @ 15:00 UTC

Sep-23@
17:00 UTC

Sep-23 @ 17:00 UTC

FM231500 28010G19KT P6SM VCSH OVC015

From

From Standard forecast or significant change

Wind
  • 280° at 10 KTS
  • {Gusting to 19 KTS
Cloud Levels
  • Overcast at 1,500' AGL

Sep-23@
17:00 UTC

Sep-23 @ 17:00 UTC

Sep-23@
20:00 UTC

Sep-23 @ 20:00 UTC

FM231700 29012G20KT P6SM VCSH OVC022

From

From Standard forecast or significant change

Wind
  • 290° at 12 KTS
  • {Gusting to 20 KTS
Cloud Levels
  • Overcast at 2,200' AGL

Sep-23@
20:00 UTC

Sep-23 @ 20:00 UTC

Sep-23@
23:00 UTC

Sep-23 @ 23:00 UTC

FM232000 30011KT P6SM OVC035

From

From Standard forecast or significant change

Wind
  • 300° at 11 KTS
Cloud Levels
  • Overcast at 3,500' AGL

Sep-23@
23:00 UTC

Sep-23 @ 23:00 UTC

Sep-24@
01:00 UTC

Sep-24 @ 01:00 UTC

FM232300 31007KT P6SM BKN040

From

From Standard forecast or significant change

Wind
  • 310° at 7 KTS
Cloud Levels
  • Broken at 4,000' AGL

Sep-24@
01:00 UTC

Sep-24 @ 01:00 UTC

Sep-24@
06:00 UTC

Sep-24 @ 06:00 UTC

FM240100 VRB03KT P6SM SCT040

From

From Standard forecast or significant change

Wind
  • Variable at 3 KTS
Cloud Levels
  • Scattered at 4,000' AGL